Time;durP1;ratioP1;P1;durP2;ratioP2;P2;SDS_P1;SDS_P2;PMS_P1;PMS_P2;Temp;Humidity;BMP_temperature;BMP_pressure;BME280_temperature;BME280_humidity;BME280_pressure;Samples;Min_cycle;Max_cycle;Signal;HPM_P1;HPM_P2
2023/08/06 00:01:57;;;;;;;11.25;6.97;;;14.40;99.90;;;;;;6167198;23;20015;-86
2023/08/06 00:04:43;;;;;;;9.90;6.75;;;14.40;99.90;;;;;;6166794;23;20091;-86
2023/08/06 00:07:39;;;;;;;8.97;7.13;;;14.50;99.90;;;;;;6212192;23;20012;-86
2023/08/06 00:10:05;;;;;;;9.90;6.78;;;14.50;99.90;;;;;;6191427;23;20375;-86
2023/08/06 00:12:31;;;;;;;9.63;7.40;;;14.50;99.90;;;;;;6142470;23;20062;-85
2023/08/06 00:14:57;;;;;;;12.45;7.47;;;14.40;99.90;;;;;;6166903;23;20095;-86
2023/08/06 00:17:23;;;;;;;10.88;8.68;;;14.50;99.90;;;;;;6166576;23;20012;-86
2023/08/06 00:19:49;;;;;;;10.30;8.13;;;14.50;99.90;;;;;;6118054;23;20101;-85
2023/08/06 00:22:17;;;;;;;11.18;8.10;;;14.50;99.90;;;;;;6167088;23;20009;-87
2023/08/06 00:24:43;;;;;;;12.20;9.02;;;14.50;99.90;;;;;;6191674;23;20087;-86
2023/08/06 00:27:09;;;;;;;13.95;9.73;;;14.40;99.90;;;;;;6191883;23;20013;-86
2023/08/06 00:29:35;;;;;;;11.48;9.23;;;14.50;99.90;;;;;;6166869;23;20017;-85
2023/08/06 00:32:01;;;;;;;13.80;9.50;;;14.40;99.90;;;;;;6166777;23;20092;-86
2023/08/06 00:34:27;;;;;;;12.68;9.60;;;14.50;99.90;;;;;;6166517;23;20015;-86
2023/08/06 00:36:54;;;;;;;11.05;9.40;;;14.40;99.90;;;;;;6117979;23;20009;-87
2023/08/06 00:39:20;;;;;;;12.57;10.43;;;14.50;99.90;;;;;;6141656;23;20013;-86
2023/08/06 00:41:48;;;;;;;15.27;9.70;;;14.50;99.90;;;;;;6166546;23;20339;-87
2023/08/06 00:44:14;;;;;;;13.55;10.35;;;14.50;99.90;;;;;;6191660;23;20100;-86
2023/08/06 00:46:40;;;;;;;12.68;9.77;;;14.50;99.90;;;;;;6166066;23;20311;-86
2023/08/06 00:49:06;;;;;;;13.27;10.45;;;14.50;99.90;;;;;;6143126;23;20108;-89
2023/08/06 00:51:35;;;;;;;15.38;10.18;;;14.50;99.90;;;;;;6192631;23;20329;-86
2023/08/06 00:54:03;;;;;;;13.00;10.10;;;14.40;99.90;;;;;;6192517;23;20013;-85
2023/08/06 00:56:29;;;;;;;11.43;9.27;;;14.50;99.90;;;;;;6168088;23;20083;-86
2023/08/06 00:58:55;;;;;;;11.68;9.32;;;14.50;99.90;;;;;;6193109;23;20008;-85
2023/08/06 01:01:21;;;;;;;14.43;9.40;;;14.50;99.90;;;;;;6143920;23;20027;-87
2023/08/06 01:03:47;;;;;;;11.25;9.85;;;14.50;99.90;;;;;;6170075;23;20016;-85
2023/08/06 01:06:23;;;;;;;12.70;9.70;;;14.50;99.90;;;;;;6174802;23;20016;-85
2023/08/06 01:09:01;;;;;;;13.00;9.63;;;14.50;99.90;;;;;;6198219;23;20029;-86
2023/08/06 01:11:44;;;;;;;13.18;10.52;;;14.50;99.90;;;;;;6197584;23;20012;-86
2023/08/06 01:14:30;;;;;;;14.73;9.88;;;14.60;99.90;;;;;;6173425;23;20105;-87
2023/08/06 01:16:58;;;;;;;14.70;9.73;;;14.50;99.90;;;;;;6197535;23;20006;-86
2023/08/06 01:19:25;;;;;;;15.00;10.27;;;14.50;99.90;;;;;;6198112;23;20082;-86
2023/08/06 01:21:50;;;;;;;11.82;9.68;;;14.60;99.90;;;;;;6173691;23;20012;-86
2023/08/06 01:24:16;;;;;;;11.00;9.07;;;14.50;99.90;;;;;;6197830;23;20290;-85
2023/08/06 01:26:48;;;;;;;13.18;10.40;;;14.50;99.90;;;;;;6172991;23;20144;-86
2023/08/06 01:29:33;;;;;;;12.95;9.68;;;14.50;99.90;;;;;;6198124;23;20008;-86
2023/08/06 01:32:00;;;;;;;14.90;9.93;;;14.60;99.90;;;;;;6223650;23;20034;-86
2023/08/06 01:34:30;;;;;;;13.18;10.68;;;14.50;99.90;;;;;;6173066;23;20024;-86
2023/08/06 01:36:57;;;;;;;12.65;9.68;;;14.50;99.90;;;;;;6170984;23;20004;-86
2023/08/06 01:39:23;;;;;;;15.52;9.32;;;14.50;99.90;;;;;;6170927;23;20324;-86
2023/08/06 01:41:49;;;;;;;11.40;9.02;;;14.50;99.90;;;;;;6194660;23;20020;-86
2023/08/06 01:44:16;;;;;;;11.88;9.63;;;14.50;99.90;;;;;;6220771;23;20016;-86
2023/08/06 01:46:42;;;;;;;12.23;9.60;;;14.50;99.90;;;;;;6195607;23;20012;-87
2023/08/06 01:49:11;;;;;;;13.73;10.30;;;14.50;99.90;;;;;;6147541;23;20020;-86
2023/08/06 01:51:37;;;;;;;14.05;10.50;;;14.60;99.90;;;;;;6170981;23;20102;-85
2023/08/06 01:54:05;;;;;;;13.23;10.23;;;14.50;99.90;;;;;;6171969;23;20066;-87
2023/08/06 01:56:31;;;;;;;12.25;9.10;;;14.60;99.90;;;;;;6144656;23;20379;-85
2023/08/06 01:58:58;;;;;;;11.88;9.88;;;14.60;99.90;;;;;;6171943;23;20016;-85
2023/08/06 02:01:24;;;;;;;14.23;10.88;;;14.60;99.90;;;;;;6146947;23;20297;-86
2023/08/06 02:03:53;;;;;;;12.57;10.13;;;14.60;99.90;;;;;;6196615;23;20013;-86
2023/08/06 02:06:19;;;;;;;13.93;10.73;;;14.60;99.90;;;;;;6171330;23;20027;-86
2023/08/06 02:08:45;;;;;;;15.27;10.02;;;14.50;99.90;;;;;;6170772;23;20016;-86
2023/08/06 02:11:11;;;;;;;14.80;10.27;;;14.60;99.90;;;;;;6195944;23;20015;-86
2023/08/06 02:13:37;;;;;;;17.23;10.98;;;14.50;99.90;;;;;;6195792;23;20038;-86
2023/08/06 02:16:08;;;;;;;13.85;11.52;;;14.50;99.90;;;;;;6196185;23;20004;-86
2023/08/06 02:18:35;;;;;;;12.82;9.90;;;14.50;99.90;;;;;;6171079;23;20043;-86
2023/08/06 02:21:01;;;;;;;15.43;11.18;;;14.50;99.90;;;;;;6171165;23;20373;-86
2023/08/06 02:23:28;;;;;;;14.40;11.18;;;14.50;99.90;;;;;;6171020;23;20012;-87
2023/08/06 02:26:12;;;;;;;12.63;9.77;;;14.50;99.90;;;;;;6170675;23;20396;-86
2023/08/06 02:28:38;;;;;;;12.93;10.82;;;14.60;99.90;;;;;;6121773;23;20018;-86
2023/08/06 02:31:06;;;;;;;13.30;11.45;;;14.50;99.90;;;;;;6170925;23;20020;-85
2023/08/06 02:33:32;;;;;;;16.08;10.57;;;14.50;99.90;;;;;;6170545;23;20099;-86
2023/08/06 02:36:03;;;;;;;15.25;11.60;;;14.50;99.90;;;;;;6195734;23;20039;-86
2023/08/06 02:38:30;;;;;;;16.40;11.18;;;14.60;99.90;;;;;;6196024;23;20009;-86
2023/08/06 02:40:56;;;;;;;15.93;12.10;;;14.50;99.90;;;;;;6170617;23;20016;-87
2023/08/06 02:43:23;;;;;;;14.65;11.93;;;14.60;99.90;;;;;;6195849;23;20019;-87
2023/08/06 02:45:49;;;;;;;12.85;10.23;;;14.50;99.90;;;;;;6195665;23;20095;-87
2023/08/06 02:48:18;;;;;;;14.23;10.60;;;14.50;99.90;;;;;;6122004;23;20320;-85
2023/08/06 02:50:44;;;;;;;12.73;10.50;;;14.50;99.90;;;;;;6170357;23;20061;-86
2023/08/06 02:53:10;;;;;;;12.73;10.57;;;14.50;99.90;;;;;;6146775;23;20012;-86
2023/08/06 02:55:37;;;;;;;14.13;11.10;;;14.50;99.90;;;;;;6144609;23;20020;-86
2023/08/06 02:58:08;;;;;;;14.30;10.20;;;14.50;99.90;;;;;;6124776;23;20023;-87
2023/08/06 03:00:38;;;;;;;13.93;10.35;;;14.60;99.90;;;;;;6171314;23;20020;-84
2023/08/06 03:03:09;;;;;;;13.60;10.25;;;14.60;99.90;;;;;;6195494;23;20390;-86
2023/08/06 03:05:53;;;;;;;13.25;9.98;;;14.60;99.90;;;;;;6195228;23;20278;-86
2023/08/06 03:08:28;;;;;;;14.13;9.88;;;14.60;99.90;;;;;;6195782;23;20016;-85
2023/08/06 03:10:54;;;;;;;14.23;10.80;;;14.60;99.90;;;;;;6169637;23;20023;-86
2023/08/06 03:13:20;;;;;;;13.55;10.05;;;14.60;99.90;;;;;;6170252;23;20396;-86
2023/08/06 03:15:56;;;;;;;12.52;9.55;;;14.60;99.90;;;;;;6172019;23;20028;-86
2023/08/06 03:18:22;;;;;;;13.38;9.77;;;14.60;99.90;;;;;;6170142;23;20416;-86
2023/08/06 03:20:50;;;;;;;12.32;9.55;;;14.60;99.90;;;;;;6195134;23;20020;-86
2023/08/06 03:23:17;;;;;;;13.32;9.90;;;14.60;99.90;;;;;;6195409;23;20015;-87
2023/08/06 03:25:44;;;;;;;12.38;9.80;;;14.60;99.90;;;;;;6169899;23;20410;-85
2023/08/06 03:28:10;;;;;;;11.98;8.90;;;14.60;99.90;;;;;;6170481;23;20346;-86
2023/08/06 03:30:36;;;;;;;14.13;9.98;;;14.60;99.90;;;;;;6220202;23;20099;-86
2023/08/06 03:33:02;;;;;;;12.02;8.95;;;14.60;99.90;;;;;;6195414;23;20010;-86
2023/08/06 03:35:29;;;;;;;12.73;9.40;;;14.60;99.90;;;;;;6195268;23;20377;-86
2023/08/06 03:37:57;;;;;;;11.07;9.75;;;14.60;99.90;;;;;;6170248;23;20005;-86
2023/08/06 03:40:23;;;;;;;12.55;9.80;;;14.60;99.90;;;;;;6170384;23;20023;-86
2023/08/06 03:42:49;;;;;;;15.32;10.85;;;14.60;99.90;;;;;;6145747;23;20016;-86
2023/08/06 03:45:16;;;;;;;15.13;11.63;;;14.60;99.90;;;;;;6195367;23;20016;-86
2023/08/06 03:47:43;;;;;;;14.43;10.13;;;14.60;99.90;;;;;;6194847;23;20042;-86
2023/08/06 03:50:11;;;;;;;13.63;10.55;;;14.50;99.90;;;;;;6170196;23;20024;-85
2023/08/06 03:52:37;;;;;;;13.95;10.40;;;14.60;99.90;;;;;;6171130;23;20043;-86
2023/08/06 03:55:03;;;;;;;11.98;9.63;;;14.60;99.90;;;;;;6143862;23;20401;-86
2023/08/06 03:57:29;;;;;;;13.40;10.25;;;14.50;99.90;;;;;;6220782;23;20074;-85
2023/08/06 03:59:55;;;;;;;14.88;10.82;;;14.60;99.90;;;;;;6170276;23;20023;-89
2023/08/06 04:02:28;;;;;;;13.77;10.40;;;14.60;99.90;;;;;;6172485;23;20012;-86
2023/08/06 04:04:54;;;;;;;13.43;11.02;;;14.60;99.90;;;;;;6169564;23;20027;-85
2023/08/06 04:07:21;;;;;;;12.52;10.57;;;14.60;99.90;;;;;;6194516;23;20012;-87
2023/08/06 04:09:55;;;;;;;12.43;10.55;;;14.60;99.90;;;;;;6194181;23;20019;-86
2023/08/06 04:12:21;;;;;;;16.60;10.57;;;14.60;99.90;;;;;;6194602;23;20079;-86
2023/08/06 04:14:47;;;;;;;13.75;11.07;;;14.60;99.90;;;;;;6195021;23;20008;-86
2023/08/06 04:17:13;;;;;;;12.52;10.77;;;14.60;99.90;;;;;;6121190;23;20329;-86
2023/08/06 04:19:41;;;;;;;18.30;11.88;;;14.60;99.90;;;;;;6194609;23;20012;-85
2023/08/06 04:22:07;;;;;;;14.55;11.52;;;14.60;99.90;;;;;;6169899;23;20004;-86
2023/08/06 04:24:33;;;;;;;14.05;11.07;;;14.60;99.90;;;;;;6173911;23;20058;-86
2023/08/06 04:27:02;;;;;;;12.40;10.52;;;14.60;99.90;;;;;;6169096;23;20016;-87
2023/08/06 04:29:30;;;;;;;12.55;11.13;;;14.60;99.90;;;;;;6172336;23;20008;-86
2023/08/06 04:31:57;;;;;;;13.32;11.38;;;14.60;99.90;;;;;;6172319;23;20012;-86
2023/08/06 04:34:24;;;;;;;17.42;11.30;;;14.60;99.90;;;;;;6198384;23;20083;-86
2023/08/06 04:36:50;;;;;;;13.85;11.60;;;14.60;99.90;;;;;;6147977;23;20004;-87
2023/08/06 04:39:18;;;;;;;12.55;10.88;;;14.60;99.90;;;;;;6173322;23;20366;-87
2023/08/06 04:41:44;;;;;;;15.73;11.45;;;14.60;99.90;;;;;;6172668;23;20020;-86
2023/08/06 04:44:10;;;;;;;14.52;11.98;;;14.60;99.90;;;;;;6172324;23;20074;-86
2023/08/06 04:46:36;;;;;;;20.05;12.30;;;14.60;99.90;;;;;;6198327;23;20012;-86
2023/08/06 04:49:04;;;;;;;16.70;11.40;;;14.60;99.90;;;;;;6197959;23;20082;-87
2023/08/06 04:51:30;;;;;;;13.73;11.18;;;14.60;99.90;;;;;;6197950;23;20015;-86
2023/08/06 04:53:57;;;;;;;14.93;11.52;;;14.60;99.90;;;;;;6172440;23;20285;-86
2023/08/06 04:56:23;;;;;;;16.08;11.77;;;14.60;99.90;;;;;;6173222;23;20012;-86
2023/08/06 04:58:50;;;;;;;15.02;12.15;;;14.70;99.90;;;;;;6222776;23;20277;-86
2023/08/06 05:01:16;;;;;;;15.25;12.90;;;14.60;99.90;;;;;;6197643;23;20020;-86
2023/08/06 05:03:42;;;;;;;13.00;11.60;;;14.60;99.90;;;;;;6172183;23;20096;-86
2023/08/06 05:06:08;;;;;;;13.23;10.93;;;14.60;99.90;;;;;;6197234;23;20044;-86
2023/08/06 05:08:34;;;;;;;14.82;11.32;;;14.60;99.90;;;;;;6173065;23;20066;-86
2023/08/06 05:11:00;;;;;;;14.50;12.15;;;14.60;99.90;;;;;;6172550;23;20389;-85
2023/08/06 05:13:28;;;;;;;15.77;11.57;;;14.60;99.90;;;;;;6174634;23;20011;-86
2023/08/06 05:15:54;;;;;;;14.70;12.40;;;14.70;99.90;;;;;;6172692;23;20019;-86
2023/08/06 05:18:23;;;;;;;15.30;11.48;;;14.70;99.90;;;;;;6172982;23;20375;-86
2023/08/06 05:20:50;;;;;;;16.52;11.35;;;14.70;99.90;;;;;;6124838;23;20016;-85
2023/08/06 05:23:16;;;;;;;14.68;11.50;;;14.70;99.90;;;;;;6172644;23;20039;-85
2023/08/06 05:25:42;;;;;;;14.95;12.05;;;14.70;99.90;;;;;;6172639;23;20058;-87
2023/08/06 05:28:08;;;;;;;14.23;10.82;;;14.80;99.90;;;;;;6197506;23;20014;-86
2023/08/06 05:30:38;;;;;;;15.30;11.38;;;14.80;99.90;;;;;;6195875;23;20075;-87
2023/08/06 05:33:04;;;;;;;14.27;11.80;;;14.80;99.90;;;;;;6170232;23;20016;-86
2023/08/06 05:35:30;;;;;;;15.75;11.75;;;14.80;99.90;;;;;;6169803;23;20015;-86
2023/08/06 05:37:56;;;;;;;16.83;11.73;;;14.80;99.90;;;;;;6170657;23;20031;-87
2023/08/06 05:40:22;;;;;;;16.15;11.77;;;14.80;99.90;;;;;;6171391;23;20023;-87
2023/08/06 05:42:48;;;;;;;14.98;11.93;;;14.80;99.90;;;;;;6173865;23;20038;-86
2023/08/06 05:45:18;;;;;;;17.65;11.75;;;14.80;99.90;;;;;;6147521;23;20023;-87
2023/08/06 05:47:44;;;;;;;16.40;11.70;;;14.90;99.90;;;;;;6196798;23;20042;-87
2023/08/06 05:50:10;;;;;;;13.77;11.48;;;14.90;99.90;;;;;;6146529;23;20035;-87
2023/08/06 05:52:36;;;;;;;14.52;11.63;;;14.90;99.90;;;;;;6171131;23;20008;-87
2023/08/06 05:55:02;;;;;;;15.13;10.88;;;15.00;99.90;;;;;;6170368;23;20450;-86
2023/08/06 05:57:28;;;;;;;17.08;12.00;;;15.00;99.90;;;;;;6171226;23;20389;-87
2023/08/06 05:59:56;;;;;;;15.13;11.40;;;15.00;99.90;;;;;;6172123;23;20091;-87
2023/08/06 06:02:25;;;;;;;13.18;10.73;;;15.10;99.90;;;;;;6169762;23;20015;-86
2023/08/06 06:04:51;;;;;;;13.63;12.20;;;15.10;99.90;;;;;;6170727;23;20030;-87
2023/08/06 06:07:20;;;;;;;14.45;10.85;;;15.10;99.90;;;;;;6197077;23;20008;-87
2023/08/06 06:09:48;;;;;;;14.65;12.30;;;15.10;99.90;;;;;;6171654;23;20008;-88
2023/08/06 06:12:17;;;;;;;16.52;11.45;;;15.10;99.90;;;;;;6171591;23;20036;-87
2023/08/06 06:14:43;;;;;;;13.88;11.55;;;15.20;99.90;;;;;;6171369;23;20019;-88
2023/08/06 06:17:09;;;;;;;14.18;11.07;;;15.20;99.90;;;;;;6169884;23;20004;-87
2023/08/06 06:19:35;;;;;;;15.85;11.48;;;15.20;99.90;;;;;;6196193;23;20015;-88
2023/08/06 06:22:01;;;;;;;13.25;11.40;;;15.30;99.90;;;;;;6169919;23;20110;-88
2023/08/06 06:24:27;;;;;;;12.98;10.23;;;15.30;99.90;;;;;;6170759;23;20254;-87
2023/08/06 06:26:53;;;;;;;12.43;10.68;;;15.30;99.90;;;;;;6220171;23;20008;-89
2023/08/06 06:29:19;;;;;;;11.93;10.65;;;15.40;99.90;;;;;;6171389;23;20100;-88
2023/08/06 06:31:45;;;;;;;12.43;10.65;;;15.40;99.90;;;;;;6171038;23;20355;-87
2023/08/06 06:34:11;;;;;;;15.52;10.93;;;15.40;99.90;;;;;;6172157;23;20032;-88
2023/08/06 06:36:37;;;;;;;14.27;10.90;;;15.40;99.90;;;;;;6197063;23;20008;-87
2023/08/06 06:39:03;;;;;;;13.73;11.05;;;15.40;99.90;;;;;;6196639;23;20032;-88
2023/08/06 06:41:31;;;;;;;12.50;9.90;;;15.50;99.90;;;;;;6196670;23;20023;-88
2023/08/06 06:44:04;;;;;;;11.98;10.38;;;15.50;99.90;;;;;;6171607;23;20004;-87
2023/08/06 06:46:30;;;;;;;15.30;10.15;;;15.60;99.90;;;;;;6171579;23;20035;-88
2023/08/06 06:48:55;;;;;;;14.20;10.45;;;15.60;99.90;;;;;;6171384;23;20016;-88
2023/08/06 06:51:26;;;;;;;12.90;9.88;;;15.60;99.90;;;;;;6197221;23;20008;-90
2023/08/06 06:53:52;;;;;;;12.45;10.50;;;15.70;99.90;;;;;;6171349;23;20338;-87
2023/08/06 06:56:18;;;;;;;13.15;9.77;;;15.70;99.90;;;;;;6172126;23;20019;-88
2023/08/06 06:58:47;;;;;;;12.82;10.30;;;15.80;99.90;;;;;;6149440;23;20040;-89
2023/08/06 07:01:13;;;;;;;11.27;9.85;;;15.80;99.90;;;;;;6172136;23;20027;-88
2023/08/06 07:03:39;;;;;;;12.55;9.63;;;15.90;99.90;;;;;;6170223;23;20451;-88
2023/08/06 07:06:12;;;;;;;12.95;9.45;;;15.90;99.90;;;;;;6171864;23;20020;-88
2023/08/06 07:08:41;;;;;;;11.52;9.40;;;15.90;99.90;;;;;;6221673;23;20011;-87
2023/08/06 07:11:08;;;;;;;10.98;9.35;;;15.90;99.90;;;;;;6170404;23;20008;-88
2023/08/06 07:13:34;;;;;;;11.05;8.88;;;16.00;99.90;;;;;;6171067;23;20066;-88
2023/08/06 07:16:00;;;;;;;14.63;8.60;;;16.00;99.90;;;;;;6171447;23;20031;-88
2023/08/06 07:18:26;;;;;;;12.32;8.32;;;16.10;99.90;;;;;;6171672;23;20375;-88
2023/08/06 07:20:53;;;;;;;10.50;7.45;;;16.10;99.90;;;;;;6172315;23;20019;-88
2023/08/06 07:23:29;;;;;;;10.65;7.65;;;16.10;99.90;;;;;;6172270;23;20015;-87
2023/08/06 07:25:55;;;;;;;10.00;7.95;;;16.20;99.90;;;;;;6196448;23;20381;-87
2023/08/06 07:28:22;;;;;;;10.82;7.88;;;16.20;99.90;;;;;;6196285;23;20012;-88
2023/08/06 07:30:48;;;;;;;10.82;8.02;;;16.20;99.90;;;;;;6148515;23;20091;-88
2023/08/06 07:33:14;;;;;;;9.23;7.82;;;16.30;99.90;;;;;;6172537;23;20039;-87
2023/08/06 07:35:43;;;;;;;9.88;8.10;;;16.40;99.90;;;;;;6223075;23;20103;-88
2023/08/06 07:38:09;;;;;;;10.00;7.85;;;16.40;99.90;;;;;;6172239;23;20393;-87
2023/08/06 07:40:38;;;;;;;11.77;8.10;;;16.50;99.90;;;;;;6169967;23;20087;-88
2023/08/06 07:43:05;;;;;;;11.90;7.35;;;16.50;99.90;;;;;;6120780;23;20050;-89
2023/08/06 07:45:37;;;;;;;10.57;7.03;;;16.60;99.90;;;;;;6196791;23;20090;-88
2023/08/06 07:48:03;;;;;;;9.02;6.47;;;16.60;99.90;;;;;;6220427;23;20353;-88
2023/08/06 07:50:53;;;;;;;;;;;;;;;;;;;;;
2023/08/06 07:53:23;;;;;;;7.75;5.68;;;16.80;99.90;;;;;;6175443;23;20058;-87
2023/08/06 07:56:06;;;;;;;9.35;5.57;;;16.80;99.90;;;;;;6171668;23;20266;-87
2023/08/06 07:58:52;;;;;;;9.80;5.55;;;16.80;99.90;;;;;;6197889;23;20012;-86
2023/08/06 08:01:22;;;;;;;8.38;5.80;;;16.90;99.90;;;;;;6195008;23;20044;-88
2023/08/06 08:03:53;;;;;;;8.65;5.15;;;16.90;99.90;;;;;;6172828;23;20019;-87
2023/08/06 08:06:29;;;;;;;;;;;17.00;99.90;;;;;;6175051;23;20016;-87
2023/08/06 08:09:01;;;;;;;8.93;4.68;;;17.00;99.90;;;;;;6195973;23;19904;-88
2023/08/06 08:11:30;;;;;;;6.15;4.45;;;17.10;99.90;;;;;;6196932;23;20138;-89
2023/08/06 08:14:03;;;;;;;7.15;4.85;;;17.20;99.90;;;;;;6149760;23;20005;-88
2023/08/06 08:16:33;;;;;;;6.15;4.82;;;17.20;99.90;;;;;;6198993;23;20004;-89
2023/08/06 08:19:03;;;;;;;8.10;5.10;;;17.30;99.90;;;;;;6173526;23;20079;-89
2023/08/06 08:21:30;;;;;;;7.00;5.07;;;17.30;99.90;;;;;;6173368;23;20333;-89
2023/08/06 08:23:56;;;;;;;8.15;4.78;;;17.40;99.90;;;;;;6172225;23;20016;-88
2023/08/06 08:26:30;;;;;;;5.40;3.90;;;17.50;99.90;;;;;;6174902;23;20015;-88
2023/08/06 08:28:56;;;;;;;5.53;4.18;;;17.60;99.90;;;;;;6197598;23;20016;-89
2023/08/06 08:31:25;;;;;;;6.57;3.97;;;17.60;99.90;;;;;;6172638;23;20094;-89
2023/08/06 08:33:51;;;;;;;7.82;4.78;;;17.60;99.90;;;;;;6172641;23;20408;-87
2023/08/06 08:36:17;;;;;;;7.18;5.30;;;17.70;99.90;;;;;;6173048;23;20085;-88
2023/08/06 08:38:45;;;;;;;7.82;5.40;;;17.80;99.90;;;;;;6196979;23;20090;-87
2023/08/06 08:41:15;;;;;;;6.28;4.80;;;17.80;99.90;;;;;;6172408;23;20012;-88
2023/08/06 08:43:42;;;;;;;7.75;5.30;;;17.80;99.90;;;;;;6194894;23;20066;-88
2023/08/06 08:46:20;;;;;;;5.38;4.05;;;17.90;99.90;;;;;;6146206;23;20008;-88
2023/08/06 08:48:48;;;;;;;7.22;4.68;;;18.00;99.90;;;;;;6196582;23;20093;-88
2023/08/06 08:51:18;;;;;;;6.70;4.38;;;18.10;99.90;;;;;;6171578;23;20019;-88
2023/08/06 08:53:52;;;;;;;8.85;4.22;;;18.20;99.90;;;;;;6171535;23;20008;-89
2023/08/06 08:56:21;;;;;;;7.93;4.30;;;18.20;99.90;;;;;;6195009;23;20004;-88
2023/08/06 08:58:55;;;;;;;9.30;4.60;;;18.30;99.90;;;;;;6196545;23;20083;-89
2023/08/06 09:01:25;;;;;;;5.97;4.15;;;18.40;99.90;;;;;;6150193;23;20099;-91
2023/08/06 09:03:54;;;;;;;5.38;3.35;;;18.40;99.90;;;;;;6195965;23;20012;-90
2023/08/06 09:06:27;;;;;;;6.80;3.03;;;18.40;99.90;;;;;;6146523;23;20360;-90
2023/08/06 09:09:04;;;;;;;4.25;2.17;;;18.40;99.90;;;;;;6172018;23;20014;-90
2023/08/06 09:11:39;;;;;;;4.10;2.10;;;18.50;99.90;;;;;;6170956;23;20011;-89
2023/08/06 09:14:08;;;;;;;6.97;2.45;;;18.50;99.90;;;;;;6172656;23;20026;-89
2023/08/06 09:16:40;;;;;;;5.15;2.47;;;18.60;99.90;;;;;;6197912;23;20008;-91
2023/08/06 09:19:27;;;;;;;5.22;2.20;;;18.60;99.90;;;;;;6204717;23;20075;-89
2023/08/06 09:21:59;;;;;;;4.65;2.30;;;18.60;99.90;;;;;;6173635;23;20027;-89
2023/08/06 09:24:27;;;;;;;4.63;2.35;;;18.60;99.90;;;;;;6197958;23;20277;-91
2023/08/06 09:27:03;;;;;;;4.97;2.03;;;18.60;99.90;;;;;;6173001;23;20034;-89
2023/08/06 09:29:32;;;;;;;4.30;2.70;;;18.70;99.90;;;;;;6198163;23;20100;-87
2023/08/06 09:32:18;;;;;;;4.85;2.28;;;18.70;99.90;;;;;;6223786;23;20012;-90
2023/08/06 09:34:55;;;;;;;5.68;2.30;;;18.70;99.90;;;;;;6173410;23;20312;-90
2023/08/06 09:37:31;;;;;;;;;;;;;;;;;;;;;
2023/08/06 09:40:35;;;;;;;14.15;2.75;;;18.80;99.90;;;;;;6221065;23;20011;-90
2023/08/06 09:43:02;;;;;;;4.53;2.13;;;18.80;99.90;;;;;;6197028;23;20374;-90
2023/08/06 09:45:38;;;;;;;4.63;2.42;;;18.90;99.90;;;;;;6172523;23;20008;-90
2023/08/06 09:48:11;;;;;;;4.10;2.13;;;18.90;99.90;;;;;;6199033;23;20012;-93
2023/08/06 09:51:19;;;;;;;;;;;;;;;;;;;;;
2023/08/06 09:54:20;;;;;;;6.63;2.40;;;19.00;99.90;;;;;;6221647;23;20091;-90
2023/08/06 09:56:51;;;;;;;4.43;2.50;;;19.00;99.90;;;;;;6163424;23;20066;-90
2023/08/06 09:59:47;;;;;;;4.28;2.22;;;19.00;99.90;;;;;;6178771;23;20008;-92
2023/08/06 10:02:21;;;;;;;5.43;2.45;;;18.90;99.90;;;;;;6173644;23;20061;-93
2023/08/06 10:05:02;;;;;;;5.85;2.67;;;18.90;99.90;;;;;;6174864;23;20031;-91
2023/08/06 10:07:40;;;;;;;;;;;;;;;;;;;;;
2023/08/06 10:10:19;;;;;;;3.58;2.20;;;19.00;99.90;;;;;;6179609;23;20384;-90
2023/08/06 10:12:58;;;;;;;5.00;2.70;;;19.00;99.90;;;;;;6175850;23;20011;-89
2023/08/06 10:15:30;;;;;;;8.30;3.47;;;19.00;99.90;;;;;;6172076;23;20016;-90
2023/08/06 10:18:32;;;;;;;7.05;3.22;;;18.90;99.90;;;;;;6172288;23;20004;-89
2023/08/06 10:21:09;;;;;;;4.70;2.55;;;18.90;99.90;;;;;;6172526;23;20015;-90
2023/08/06 10:23:43;;;;;;;5.97;2.42;;;18.90;99.90;;;;;;6173537;23;20027;-89
2023/08/06 10:26:19;;;;;;;5.78;2.70;;;19.00;99.90;;;;;;6174279;23;20093;-91
2023/08/06 10:28:47;;;;;;;6.05;3.10;;;18.90;99.90;;;;;;6173313;23;20012;-89
2023/08/06 10:31:18;;;;;;;5.80;2.65;;;18.90;99.90;;;;;;6173532;23;20019;-89
2023/08/06 10:33:49;;;;;;;5.85;2.75;;;18.90;99.90;;;;;;6172380;23;20016;-89
2023/08/06 10:36:15;;;;;;;5.25;2.72;;;18.90;99.90;;;;;;6197203;23;20008;-92
2023/08/06 10:38:49;;;;;;;6.50;2.80;;;18.80;99.90;;;;;;6171346;23;20008;-89
2023/08/06 10:41:37;;;;;;;7.55;2.97;;;18.80;99.90;;;;;;6221441;23;20019;-89
2023/08/06 10:44:28;;;;;;;7.85;3.25;;;18.80;99.90;;;;;;6172770;23;20376;-89
2023/08/06 10:47:17;;;;;;;6.25;3.35;;;18.70;99.90;;;;;;6171475;23;20012;-91
2023/08/06 10:49:52;;;;;;;6.57;2.88;;;18.70;99.90;;;;;;6196707;23;20095;-91
2023/08/06 10:52:20;;;;;;;6.97;3.13;;;18.70;99.90;;;;;;6172455;23;20008;-90
2023/08/06 10:54:49;;;;;;;5.85;3.20;;;18.70;99.90;;;;;;6171845;23;20003;-90
2023/08/06 10:57:20;;;;;;;5.68;3.05;;;18.80;99.90;;;;;;6170965;23;20585;-91
2023/08/06 10:59:52;;;;;;;8.60;3.30;;;18.80;99.90;;;;;;6172849;23;20003;-91
2023/08/06 11:02:20;;;;;;;6.38;3.13;;;18.90;99.90;;;;;;6198301;23;20434;-89
2023/08/06 11:04:51;;;;;;;6.80;2.80;;;18.90;99.90;;;;;;6140273;23;20679;-92
2023/08/06 11:07:32;;;;;;;5.32;3.00;;;18.90;99.90;;;;;;6210778;23;20008;-95
2023/08/06 11:10:10;;;;;;;6.65;3.08;;;19.00;99.90;;;;;;6179451;23;20277;-89
2023/08/06 11:12:37;;;;;;;5.32;2.72;;;19.00;99.90;;;;;;6166143;23;20313;-87
2023/08/06 11:15:04;;;;;;;6.82;2.95;;;19.00;99.90;;;;;;6166394;23;20377;-89
2023/08/06 11:17:35;;;;;;;6.85;3.13;;;19.10;99.90;;;;;;6167620;23;20013;-89
2023/08/06 11:20:05;;;;;;;8.32;4.20;;;19.20;99.90;;;;;;6191664;23;20016;-89
2023/08/06 11:22:32;;;;;;;7.85;4.32;;;19.20;99.90;;;;;;6167093;23;20071;-87
2023/08/06 11:25:00;;;;;;;7.20;3.80;;;19.20;99.90;;;;;;6166483;23;20009;-88
2023/08/06 11:27:29;;;;;;;6.43;3.67;;;19.20;99.90;;;;;;6167687;23;20012;-87
2023/08/06 11:29:56;;;;;;;6.13;3.53;;;19.20;99.90;;;;;;6191354;23;20089;-90
2023/08/06 11:32:24;;;;;;;8.00;3.42;;;19.20;99.90;;;;;;6190589;23;20013;-91
2023/08/06 11:34:54;;;;;;;7.40;3.85;;;19.30;99.90;;;;;;6191654;23;20354;-90
2023/08/06 11:37:28;;;;;;;6.47;3.80;;;19.30;99.90;;;;;;6215950;23;20030;-88
2023/08/06 11:39:54;;;;;;;5.18;3.53;;;19.30;99.90;;;;;;6165380;23;20068;-89
2023/08/06 11:42:23;;;;;;;7.43;3.63;;;19.30;99.90;;;;;;6166314;23;20000;-90
2023/08/06 11:44:49;;;;;;;6.95;3.60;;;19.30;99.90;;;;;;6191426;23;20322;-89
2023/08/06 11:47:25;;;;;;;5.88;3.47;;;19.30;99.90;;;;;;6216631;23;20008;-90
2023/08/06 11:49:54;;;;;;;;;;;19.30;99.90;;;;;;6167148;23;20005;-88
2023/08/06 11:52:22;;;;;;;6.35;3.45;;;19.20;99.90;;;;;;6166646;23;19987;-89
2023/08/06 11:55:11;;;;;;;6.43;3.70;;;19.30;99.90;;;;;;6166387;23;20016;-89
2023/08/06 11:57:39;;;;;;;8.30;4.03;;;19.40;99.90;;;;;;6191631;23;20005;-89
2023/08/06 12:00:12;;;;;;;7.15;3.78;;;19.30;99.90;;;;;;6168467;23;20000;-89
2023/08/06 12:02:41;;;;;;;6.32;3.00;;;19.30;99.90;;;;;;6192016;23;20016;-90
2023/08/06 12:05:17;;;;;;;6.18;3.55;;;19.30;99.90;;;;;;6191030;23;20063;-89
2023/08/06 12:07:55;;;;;;;5.18;3.03;;;19.20;99.90;;;;;;6191954;23;20031;-90
2023/08/06 12:10:29;;;;;;;8.95;4.20;;;19.20;99.90;;;;;;6191913;23;20074;-89
2023/08/06 12:13:01;;;;;;;5.75;2.97;;;19.20;99.90;;;;;;6167669;23;20007;-89
2023/08/06 12:15:30;;;;;;;5.72;3.58;;;19.10;99.90;;;;;;6166628;23;20071;-92
2023/08/06 12:18:01;;;;;;;5.75;3.60;;;19.10;99.90;;;;;;6192307;23;20008;-89
2023/08/06 12:20:32;;;;;;;8.50;3.72;;;19.10;99.90;;;;;;6191581;23;20013;-89
2023/08/06 12:22:58;;;;;;;6.28;3.70;;;19.10;99.90;;;;;;6191757;23;20016;-89
2023/08/06 12:25:28;;;;;;;6.45;3.50;;;19.10;99.90;;;;;;6166606;23;20013;-89
2023/08/06 12:27:57;;;;;;;5.88;3.05;;;19.10;99.90;;;;;;6167305;23;20031;-89
2023/08/06 12:30:23;;;;;;;6.43;3.63;;;19.10;99.90;;;;;;6191452;23;20016;-89
2023/08/06 12:32:51;;;;;;;6.00;3.38;;;19.00;99.90;;;;;;6191584;23;20028;-89
2023/08/06 12:35:20;;;;;;;6.28;3.60;;;19.00;99.90;;;;;;6191990;23;20013;-90
2023/08/06 12:37:46;;;;;;;6.70;3.53;;;19.00;99.90;;;;;;6166692;23;20024;-90
2023/08/06 12:40:15;;;;;;;8.00;3.55;;;19.00;99.90;;;;;;6191882;23;20206;-89
2023/08/06 12:42:50;;;;;;;7.10;3.47;;;19.00;99.90;;;;;;6191578;23;20394;-89
2023/08/06 12:45:20;;;;;;;7.85;3.60;;;19.10;99.90;;;;;;6192341;23;20013;-90
2023/08/06 12:47:47;;;;;;;5.43;3.30;;;19.10;99.90;;;;;;6192124;23;20008;-89
2023/08/06 12:50:13;;;;;;;5.55;3.38;;;19.10;99.90;;;;;;6193546;23;20083;-89
2023/08/06 12:52:39;;;;;;;7.18;3.20;;;19.10;99.90;;;;;;6192885;23;20024;-90
2023/08/06 12:55:06;;;;;;;5.60;3.10;;;19.00;99.90;;;;;;6168204;23;20015;-88
2023/08/06 12:57:34;;;;;;;6.10;3.22;;;19.10;99.90;;;;;;6192814;23;20098;-90